Time;durP1;ratioP1;P1;durP2;ratioP2;P2;SDS_P1;SDS_P2;PMS_P1;PMS_P2;Temp;Humidity;BMP_temperature;BMP_pressure;BME280_temperature;BME280_humidity;BME280_pressure;Samples;Min_cycle;Max_cycle;Signal;HPM_P1;HPM_P2
2021/06/09 21:36:47;;;;;;;17.55;6.85;;;;;;;15.67;100.00;98224.22;5053310;23;20057;-78
2021/06/09 21:39:14;;;;;;;14.70;7.43;;;;;;;15.56;100.00;98214.84;5025642;28;20064;-79
2021/06/09 21:41:40;;;;;;;11.40;6.57;;;;;;;15.55;100.00;98224.97;5037685;28;20093;-77
2021/06/09 21:44:07;;;;;;;15.85;6.95;;;;;;;15.57;100.00;98221.88;5037092;28;20076;-78
2021/06/09 21:46:34;;;;;;;15.38;6.07;;;;;;;15.62;100.00;98224.41;5037189;28;20046;-78
2021/06/09 21:49:01;;;;;;;17.42;5.90;;;;;;;15.69;100.00;98216.47;5019496;28;20397;-80
2021/06/09 21:51:27;;;;;;;20.80;5.88;;;;;;;15.66;100.00;98214.44;5019994;28;20061;-76
2021/06/09 21:53:54;;;;;;;18.27;5.28;;;;;;;15.43;100.00;98211.19;5003905;28;20049;-77
2021/06/09 21:56:20;;;;;;;10.10;5.35;;;;;;;15.16;100.00;98217.16;5045523;28;20041;-77
2021/06/09 21:58:47;;;;;;;7.07;5.18;;;;;;;14.86;100.00;98219.09;5050402;28;20493;-78
2021/06/09 22:01:13;;;;;;;9.15;5.63;;;;;;;14.82;100.00;98214.63;5018515;28;20111;-77
2021/06/09 22:03:40;;;;;;;15.27;6.68;;;;;;;14.82;100.00;98226.31;5036075;28;20117;-77
2021/06/09 22:06:07;;;;;;;14.02;7.03;;;;;;;14.84;100.00;98234.19;5019056;28;20417;-78
2021/06/09 22:08:33;;;;;;;15.30;7.65;;;;;;;14.74;100.00;98229.88;5040747;28;20073;-76
2021/06/09 22:11:00;;;;;;;13.55;6.55;;;;;;;14.84;100.00;98231.47;5041332;28;20061;-78
2021/06/09 22:13:27;;;;;;;15.27;6.30;;;;;;;14.98;100.00;98235.56;5041696;28;20057;-79
2021/06/09 22:15:53;;;;;;;9.32;6.82;;;;;;;15.09;100.00;98235.97;5022653;28;20111;-77
2021/06/09 22:18:21;;;;;;;11.18;6.32;;;;;;;15.16;100.00;98225.34;5042073;28;20088;-81
2021/06/09 22:20:47;;;;;;;12.20;6.30;;;;;;;15.14;100.00;98224.88;5042167;28;20057;-77
2021/06/09 22:23:14;;;;;;;15.52;6.03;;;;;;;15.19;100.00;98213.78;5041685;28;20049;-79
2021/06/09 22:25:41;;;;;;;12.32;6.03;;;;;;;15.21;100.00;98227.06;5035775;28;20080;-79
2021/06/09 22:28:08;;;;;;;16.70;6.38;;;;;;;15.16;100.00;98224.53;5043364;28;20105;-77
2021/06/09 22:30:34;;;;;;;10.80;6.05;;;;;;;15.15;100.00;98222.97;5043891;28;20283;-78
2021/06/09 22:33:01;;;;;;;12.80;5.70;;;;;;;15.14;100.00;98221.34;5044313;28;20054;-78
2021/06/09 22:35:28;;;;;;;9.75;5.72;;;;;;;15.18;100.00;98235.91;5038279;28;20059;-79
2021/06/09 22:37:54;;;;;;;10.55;6.32;;;;;;;15.17;100.00;98234.34;5037762;28;20121;-79
2021/06/09 22:40:21;;;;;;;12.20;6.30;;;;;;;15.10;100.00;98229.38;5019556;28;20088;-79
2021/06/09 22:42:48;;;;;;;10.18;6.28;;;;;;;15.11;100.00;98222.81;5035887;28;20050;-79
2021/06/09 22:45:14;;;;;;;16.52;6.63;;;;;;;15.15;100.00;98225.69;5037067;28;20103;-76
2021/06/09 22:47:41;;;;;;;12.00;6.82;;;;;;;15.12;100.00;98227.16;5019777;28;20049;-78
2021/06/09 22:50:09;;;;;;;15.85;8.00;;;;;;;15.04;100.00;98227.19;5037468;28;20057;-78
2021/06/09 22:52:35;;;;;;;12.50;7.60;;;;;;;14.93;100.00;98213.94;5037552;28;20402;-76
2021/06/09 22:55:07;;;;;;;12.93;7.70;;;;;;;14.97;100.00;98233.94;5037367;28;20115;-80
2021/06/09 22:57:34;;;;;;;12.50;7.75;;;;;;;14.97;100.00;98209.41;5036991;28;20049;-78
2021/06/09 23:00:01;;;;;;;13.23;7.32;;;;;;;14.96;100.00;98204.28;5019461;28;20056;-79
2021/06/09 23:02:31;;;;;;;13.02;7.00;;;;;;;15.01;100.00;98223.19;5019549;28;20076;-77
2021/06/09 23:04:58;;;;;;;10.15;7.78;;;;;;;14.92;100.00;98217.78;5002994;28;20512;-78
2021/06/09 23:07:25;;;;;;;12.68;8.15;;;;;;;14.96;100.00;98220.66;5019235;28;20049;-79
2021/06/09 23:09:53;;;;;;;16.52;7.88;;;;;;;14.85;100.00;98228.41;5037327;28;20562;-79
2021/06/09 23:12:20;;;;;;;12.35;7.43;;;;;;;14.86;100.00;98218.28;5019495;28;20123;-79
2021/06/09 23:14:46;;;;;;;11.77;7.55;;;;;;;14.54;100.00;98222.44;5035773;28;20136;-78
2021/06/09 23:17:13;;;;;;;12.70;7.60;;;;;;;14.53;100.00;98226.28;5036186;28;20108;-79
2021/06/09 23:19:39;;;;;;;13.65;7.50;;;;;;;14.41;100.00;98209.81;5036208;28;20053;-78
2021/06/09 23:22:06;;;;;;;14.20;6.78;;;;;;;14.48;100.00;98222.94;5035967;28;20063;-79
2021/06/09 23:24:33;;;;;;;10.50;6.55;;;;;;;14.44;100.00;98219.25;5046751;28;20060;-76
2021/06/09 23:27:00;;;;;;;12.65;6.35;;;;;;;14.37;100.00;98221.69;5040884;28;20073;-77
2021/06/09 23:29:26;;;;;;;7.75;5.88;;;;;;;14.32;100.00;98212.56;5033982;28;20071;-75
2021/06/09 23:31:53;;;;;;;12.18;6.43;;;;;;;14.27;100.00;98209.97;5036125;28;20054;-78
2021/06/09 23:34:19;;;;;;;10.05;6.00;;;;;;;14.16;100.00;98205.22;5017239;28;20085;-76
2021/06/09 23:36:46;;;;;;;13.00;6.85;;;;;;;14.04;100.00;98221.41;5016520;28;20049;-78
2021/06/09 23:39:12;;;;;;;12.02;7.13;;;;;;;13.85;100.00;98227.19;5034773;28;20060;-79
2021/06/09 23:41:39;;;;;;;14.23;7.65;;;;;;;13.68;100.00;98222.53;5035446;28;20404;-76
2021/06/09 23:44:07;;;;;;;12.30;7.93;;;;;;;13.63;100.00;98228.16;5017627;28;20084;-80
2021/06/09 23:46:34;;;;;;;11.43;8.55;;;;;;;13.68;100.00;98227.19;5019763;28;20072;-80
2021/06/09 23:49:03;;;;;;;19.42;9.88;;;;;;;13.72;100.00;98226.25;5036269;28;20749;-78
2021/06/09 23:54:16;;;;;;;13.13;8.43;;;;;;;13.82;100.00;98235.19;5036042;28;20068;-80
2021/06/09 23:56:42;;;;;;;13.55;6.88;;;;;;;13.89;100.00;98230.84;5035342;28;20057;-80
2021/06/09 23:59:09;;;;;;;10.10;6.90;;;;;;;13.91;100.00;98225.13;5035857;28;20053;-77
